Latest Weather Observations for New May Downs

IDQ60801

Issued at 8:02 pm EST Sunday 26 February 2017 (issued every 30 minutes, with the page automatically refreshed every 10 minutes)

About weather observations | Map of weather stations | Latest weather observations for QLD | Other Formats
Station Details ID: 037059 Name: NEW MAY DOWNS Lat: -20.59 Lon: 139.34 Height: 392.0 m
Data from the previous 72 hours. | See also: Recent months at New May Downs
Date/Time
EST
Temp
°C
App
Temp
°C
Dew
Point
°C
Rel
Hum
%
Delta-T
°C
Wind Press
QNH
hPa
Press
MSL
hPa
Rain since
9am
mm
Dir  Spd
km/h
Gust
km/h
Spd
kts
Gust
kts
26/08:00pm 32.4 32.3 15.0 35 10.9 NE 9 13 5 7 - - 0.0
26/07:30pm 33.0 32.8 14.6 33 11.5 NE 9 15 5 8 - - 0.0
26/07:00pm 34.0 32.6 14.5 31 12.2 NE 15 22 8 12 - - 0.0
26/06:30pm 35.4 33.5 13.0 26 13.8 ENE 15 20 8 11 - - 0.0
26/06:00pm 35.7 33.1 12.0 24 14.4 E 17 24 9 13 - - 0.0
26/05:30pm 36.1 33.6 12.3 24 14.5 ENE 17 32 9 17 - - 0.0
26/05:00pm 36.7 33.9 11.5 22 15.2 E 17 26 9 14 - - 0.0
26/04:30pm 37.5 34.3 10.0 19 16.3 ENE 17 28 9 15 - - 0.0
26/04:00pm 37.1 33.7 10.4 20 15.9 ENE 19 35 10 19 - - 0.0
26/03:30pm 37.8 34.5 11.7 21 15.9 ENE 20 32 11 17 - - 0.0
26/03:00pm 37.2 34.4 11.2 21 15.7 ENE 17 28 9 15 - - 0.0
26/02:30pm 37.0 33.6 11.1 21 15.6 ENE 20 39 11 21 - - 0.0
26/02:00pm 38.1 34.3 11.2 20 16.3 ENE 22 30 12 16 - - 0.0
26/01:30pm 37.6 35.7 12.9 23 15.3 ENE 15 24 8 13 - - 0.0
26/01:00pm 36.7 33.9 11.5 22 15.2 E 17 28 9 15 - - 0.0
26/12:30pm 37.0 33.9 10.3 20 15.9 ENE 17 28 9 15 - - 0.0
26/12:00pm 36.0 36.0 13.5 26 14.0 ESE 6 19 3 10 - - 0.0
26/11:30am 34.8 34.8 14.1 28 12.9 NW 7 11 4 6 - - 0.0
26/11:00am 34.7 35.2 15.1 31 12.4 N 6 9 3 5 - - 0.0
26/10:30am 34.3 34.9 15.7 32 11.8 SE 7 17 4 9 - - 0.0
26/10:00am 32.8 33.3 16.6 38 10.4 SSW 9 13 5 7 - - 0.0
26/09:30am 31.6 33.0 18.6 46 8.5 SW 9 17 5 9 - - 0.0
26/09:00am 30.7 32.7 19.1 50 7.7 WSW 7 13 4 7 - - -
26/08:30am 29.3 31.7 18.7 52 6.9 SSW 4 6 2 3 - - -
26/08:00am 26.8 29.5 17.8 57 5.8 CALM 0 0 0 0 - - -
26/07:30am 24.5 27.2 17.7 66 4.3 CALM 0 0 0 0 - - 0.0
26/07:00am 23.8 25.8 17.8 69 3.8 WSW 4 4 2 2 - - 0.0
26/06:30am 24.0 25.7 18.0 69 3.8 WSW 6 6 3 3 - - 0.0
26/06:00am 24.1 26.0 17.6 67 4.1 SW 4 6 2 3 - - 0.0
26/05:30am 24.2 24.3 17.4 65 4.3 SW 13 19 7 10 - - 0.0
26/05:00am 24.6 26.3 17.1 63 4.7 NW 4 6 2 3 - - 0.0
26/04:30am 25.8 26.9 17.2 59 5.4 N 7 11 4 6 - - 0.0
26/04:00am 24.5 26.0 17.7 66 4.3 NNE 6 7 3 4 - - 0.0
26/03:30am 25.3 27.6 16.7 59 5.4 CALM 0 0 0 0 - - 0.0
26/03:00am 26.1 28.6 17.2 58 5.6 CALM 0 0 0 0 - - 0.0
26/02:30am 24.9 27.3 16.9 61 5.0 CALM 0 0 0 0 - - 0.0
26/02:00am 25.2 27.4 16.6 59 5.4 CALM 0 0 0 0 - - 0.0
26/01:30am 25.5 27.5 16.9 59 5.4 NNW 2 2 1 1 - - 0.0
26/01:00am 26.1 27.5 16.4 55 6.1 NNW 4 4 2 2 - - 0.0
26/12:30am 28.1 29.0 16.1 48 7.5 NNW 6 7 3 4 - - 0.0
26/12:00am 28.8 29.7 16.0 45 8.0 N 6 7 3 4 - - 0.0
 
Date/Time
EST
Temp
°C
App
Temp
°C
Dew
Point
°C
Rel
Hum
%
Delta-T
°C
Wind Press
QNH
hPa
Press
MSL
hPa
Rain since
9am
mm
Dir  Spd
km/h
Gust
km/h
Spd
kts
Gust
kts
25/11:30pm 28.4 29.3 16.0 47 7.8 N 6 6 3 3 - - 0.0
25/11:00pm 29.7 30.3 15.4 42 8.9 N 6 7 3 4 - - 0.0
25/10:30pm 29.4 30.0 15.9 44 8.5 NNE 7 7 4 4 - - 0.0
25/10:00pm 30.2 30.7 15.5 41 9.2 N 7 9 4 5 - - 0.0
25/09:30pm 30.7 31.3 15.2 39 9.7 NNE 6 7 3 4 - - 0.0
25/09:00pm 30.5 31.0 15.0 39 9.6 NNE 6 7 3 4 - - 0.0
25/08:30pm 31.2 31.3 13.9 35 10.6 NE 6 7 3 4 - - 0.0
25/08:00pm 31.8 31.8 13.5 32 11.2 NE 6 6 3 3 - - 0.0
25/07:30pm 32.6 32.3 13.3 31 11.8 ENE 7 9 4 5 - - 0.0
25/07:00pm 33.9 33.4 12.8 28 12.9 E 7 11 4 6 - - 0.0
25/06:30pm 35.0 34.1 12.6 26 13.7 ENE 9 17 5 9 - - 0.0
25/06:00pm 35.4 33.3 12.4 25 14.0 E 15 22 8 12 - - 0.0
25/05:30pm 36.4 34.5 11.9 23 14.9 ENE 13 20 7 11 - - 0.0
25/05:00pm 36.6 35.0 11.4 22 15.2 E 11 22 6 12 - - 0.0
25/04:30pm 36.6 35.2 12.1 23 14.9 E 11 22 6 12 - - 0.0
25/04:00pm 37.0 35.1 11.8 22 15.3 SE 13 22 7 12 - - 0.0
25/03:30pm 36.8 34.8 11.6 22 15.3 SE 13 28 7 15 - - 0.0
25/03:00pm 36.1 33.0 11.7 23 14.8 E 19 33 10 18 - - 0.0
25/02:30pm 36.8 33.5 10.9 21 15.5 E 19 32 10 17 - - 0.0
25/02:00pm 36.9 35.2 12.4 23 15.0 E 13 24 7 13 - - 0.0
25/01:30pm 36.7 33.8 12.2 23 15.0 E 19 28 10 15 - - 0.0
25/01:00pm 35.9 33.7 13.4 26 13.9 ESE 17 26 9 14 - - 0.0
25/12:30pm 35.2 33.4 13.4 27 13.5 ESE 15 28 8 15 - - 0.0
25/12:00pm 35.1 33.8 14.9 29 12.8 E 15 26 8 14 - - 0.0
25/11:30am 34.9 33.4 15.3 31 12.4 E 17 28 9 15 - - 0.0
25/11:00am 34.5 32.7 14.4 30 12.6 E 17 26 9 14 - - 0.0
25/10:30am 34.3 33.0 15.7 32 11.8 E 17 26 9 14 - - 0.0
25/10:00am 33.8 34.3 16.6 35 11.1 ESE 9 17 5 9 - - 0.0
25/09:30am 32.3 33.7 17.7 41 9.5 ESE 7 13 4 7 - - 0.0
25/09:00am 30.6 32.1 18.0 47 8.2 SSE 7 11 4 6 - - -
25/08:30am 28.8 31.0 19.1 55 6.4 S 6 7 3 4 - - -
25/08:00am 27.4 29.8 18.9 59 5.5 S 4 6 2 3 - - -
25/07:30am 25.8 29.8 20.6 73 3.5 CALM 0 0 0 0 - - -
25/07:00am 24.8 28.7 20.3 76 3.0 CALM 0 0 0 0 - - -
25/06:30am 24.3 28.4 20.8 81 2.3 CALM 0 0 0 0 - - -
25/06:00am 24.9 27.7 20.4 76 3.0 SW 6 6 3 3 - - -
25/05:30am 25.0 29.1 20.7 77 2.9 CALM 0 2 0 1 - - -
25/05:00am 25.3 28.3 20.8 76 3.0 SSE 6 6 3 3 - - -
25/04:30am 25.4 29.6 20.9 76 3.0 CALM 0 0 0 0 - - -
25/04:00am 25.2 29.8 21.7 81 2.4 CALM 0 0 0 0 - - -
25/03:30am 25.2 30.0 22.1 83 2.1 CALM 0 2 0 1 - - -
25/03:00am 25.6 29.8 21.7 79 2.6 SW 2 4 1 2 - - 0.0
25/02:30am 26.0 29.3 21.4 76 3.1 WSW 6 6 3 3 - - -
25/02:00am 25.6 30.6 22.5 83 2.1 CALM 0 0 0 0 - - -
25/01:30am 25.1 29.9 22.2 84 2.0 CALM 0 4 0 2 - - -
25/01:00am 25.9 29.9 22.0 79 2.6 SW 4 6 2 3 - - -
25/12:30am 25.8 29.5 22.3 81 2.4 SW 6 6 3 3 - - -
25/12:00am 25.4 29.6 21.7 80 2.5 SW 2 4 1 2 - - -
 
Date/Time
EST
Temp
°C
App
Temp
°C
Dew
Point
°C
Rel
Hum
%
Delta-T
°C
Wind Press
QNH
hPa
Press
MSL
hPa
Rain since
9am
mm
Dir  Spd
km/h
Gust
km/h
Spd
kts
Gust
kts
24/11:30pm 26.1 29.9 21.7 77 3.0 WSW 4 6 2 3 - - -
24/11:00pm 25.8 29.6 21.7 78 2.8 SW 4 4 2 2 - - -
24/10:30pm 25.4 29.9 21.5 79 2.6 CALM 0 2 0 1 - - -
24/10:00pm 25.1 29.3 21.0 78 2.7 CALM 0 0 0 0 - - -
24/09:30pm 24.9 29.1 21.0 79 2.6 CALM 0 0 0 0 - - -
24/09:00pm 25.1 29.3 21.0 78 2.7 CALM 0 0 0 0 - - 0.6
24/08:30pm 24.9 29.0 20.8 78 2.7 CALM 0 0 0 0 - - -
24/08:00pm 25.8 29.2 20.1 71 3.8 SSW 2 4 1 2 - - -
24/07:30pm 26.4 28.4 20.0 68 4.2 SW 9 13 5 7 - - -
24/07:00pm 26.6 28.6 20.0 67 4.4 SW 9 15 5 8 - - -
24/06:30pm 25.8 27.2 20.4 72 3.6 SSW 13 19 7 10 - - -
24/06:00pm 25.0 26.0 20.3 75 3.1 SSW 15 26 8 14 - - -
24/05:30pm 25.3 25.8 20.8 76 3.0 S 19 26 10 14 - - -
24/05:00pm 27.3 27.2 19.6 62 5.1 S 19 35 10 19 - - -
24/04:30pm 26.4 27.4 20.3 69 4.0 SSE 15 22 8 12 - - -
24/04:11pm 26.2 24.5 19.8 68 4.2 SE 28 48 15 26 - - -
24/04:10pm 26.2 24.6 20.1 69 4.0 SE 28 46 15 25 - - -
24/04:00pm 29.2 31.8 21.2 62 5.4 NE 9 17 5 9 - - -
24/03:30pm 27.1 27.6 20.9 69 4.2 ENE 19 30 10 16 - - -
24/03:13pm 31.1 28.6 18.1 46 8.5 ENE 28 52 15 28 - - -
24/03:00pm 33.8 33.4 17.1 37 10.8 SE 15 28 8 15 - - -
24/02:30pm 33.9 33.9 17.2 37 10.8 SE 13 22 7 12 - - -
24/02:00pm 34.4 34.6 17.6 37 11.0 SE 13 20 7 11 - - -
24/01:30pm 33.7 33.4 18.2 39 10.2 ESE 17 24 9 13 - - -
24/01:00pm 33.6 33.6 18.1 39 10.2 SE 15 20 8 11 - - -
24/12:30pm 34.3 34.6 18.8 40 10.3 ESE 15 33 8 18 - - -
24/12:00pm 33.7 32.6 17.4 37 10.6 ESE 19 32 10 17 - - -
24/11:30am 33.3 33.1 17.5 39 10.3 SE 15 24 8 13 - - -
24/11:00am 31.7 31.2 17.9 43 9.0 ESE 17 26 9 14 - - -
24/10:30am 30.7 31.9 19.1 50 7.7 ESE 11 22 6 12 - - -
24/10:00am 29.7 30.5 19.1 53 7.0 E 13 17 7 9 - - 0.0
24/09:30am 30.2 30.9 18.9 50 7.4 ESE 13 17 7 9 - - 0.0
24/09:00am 29.1 30.8 19.4 55 6.4 ESE 9 13 5 7 - - 0.0
24/08:30am 27.2 28.9 19.3 62 5.2 SSE 9 13 5 7 - - 0.0
24/08:00am 26.1 28.3 19.7 68 4.2 SE 7 11 4 6 - - 0.0
24/07:30am 24.7 27.4 19.5 73 3.4 SSE 4 6 2 3 - - 0.0
24/07:00am 23.8 26.8 20.1 80 2.4 SSE 4 6 2 3 - - 0.0
24/06:30am 23.5 26.2 20.2 82 2.2 S 6 7 3 4 - - 0.0
24/06:00am 23.3 26.7 20.2 83 2.0 S 2 4 1 2 - - 0.0
24/05:30am 23.4 26.9 20.3 83 2.0 SSE 2 6 1 3 - - 0.0
24/05:00am 23.7 26.6 20.6 83 2.0 S 6 9 3 5 - - 0.0
24/04:30am 23.6 26.3 20.7 84 1.9 SSE 7 9 4 5 - - 0.0
24/04:00am 23.7 26.8 21.0 85 1.8 S 6 9 3 5 - - 0.0
24/03:30am 23.5 26.9 21.0 86 1.7 SSW 4 6 2 3 - - 0.0
24/03:00am 23.7 26.8 21.0 85 1.8 SE 6 7 3 4 - - 0.0
24/02:30am 23.9 26.9 21.2 85 1.8 SSE 7 9 4 5 - - 0.0
24/02:00am 23.8 27.4 21.3 86 1.7 SSE 4 6 2 3 - - 0.0
24/01:30am 23.8 27.4 21.3 86 1.7 S 4 6 2 3 - - 0.0
24/01:00am 23.8 27.4 21.3 86 1.7 SSE 4 6 2 3 - - 0.0
24/12:30am 24.0 27.0 21.3 85 1.8 SE 7 11 4 6 - - 0.0
24/12:00am 24.4 26.7 21.3 83 2.1 SE 11 19 6 10 - - 0.0
 
Date/Time
EST
Temp
°C
App
Temp
°C
Dew
Point
°C
Rel
Hum
%
Delta-T
°C
Wind Press
QNH
hPa
Press
MSL
hPa
Rain since
9am
mm
Dir  Spd
km/h
Gust
km/h
Spd
kts
Gust
kts
23/11:30pm 24.7 26.4 21.0 80 2.5 SE 13 20 7 11 - - 0.0
23/11:00pm 25.6 29.3 22.5 83 2.1 SE 7 17 4 9 - - 0.0
23/10:30pm 26.1 30.3 22.4 80 2.5 ESE 4 7 2 4 - - 0.0
23/10:00pm 26.1 29.9 22.4 80 2.5 ESE 6 7 3 4 - - 0.0
23/09:30pm 25.9 29.3 22.0 79 2.6 ESE 7 9 4 5 - - 0.0
23/09:00pm 26.0 29.3 21.9 78 2.8 E 7 13 4 7 - - 0.0
23/08:30pm 26.9 30.7 21.6 72 3.6 ESE 4 6 2 3 - - 0.0

Other Formats:

Comma delimited format used in spreadsheet applications
http://www.bom.gov.au/fwo/IDQ60801/IDQ60801.94349.axf

JavaScript Object Notation format (JSON) in row-major order
http://www.bom.gov.au/fwo/IDQ60801/IDQ60801.94349.json